Time;durP1;ratioP1;P1;durP2;ratioP2;P2;SDS_P1;SDS_P2;PMS_P1;PMS_P2;Temp;Humidity;BMP_temperature;BMP_pressure;BME280_temperature;BME280_humidity;BME280_pressure;Samples;Min_cycle;Max_cycle;Signal;HPM_P1;HPM_P2
2023/02/28 00:00:12;;;;;;;3.05;1.73;;;;;0.50;99323.00;;;;4936390;29;20588;-66
2023/02/28 00:02:41;;;;;;;1.40;1.30;;;;;0.40;99311.00;;;;4911662;29;20047;-63
2023/02/28 00:05:09;;;;;;;2.15;1.95;;;;;0.40;99316.00;;;;4939250;29;20058;-65
2023/02/28 00:07:37;;;;;;;1.63;1.52;;;;;0.40;99317.00;;;;4936801;29;20048;-64
2023/02/28 00:10:07;;;;;;;1.83;1.55;;;;;0.40;99322.00;;;;4919936;29;20048;-64
2023/02/28 00:15:29;;;;;;;1.90;1.63;;;;;0.30;99310.00;;;;5028326;23;20408;-62
2023/02/28 00:17:56;;;;;;;2.20;1.80;;;;;0.20;99318.00;;;;4931660;29;20040;-63
2023/02/28 00:20:23;;;;;;;3.25;1.85;;;;;0.20;99308.00;;;;4936822;29;20059;-65
2023/02/28 00:22:52;;;;;;;2.45;1.73;;;;;0.20;99310.00;;;;4937795;29;20389;-64
2023/02/28 00:25:22;;;;;;;3.00;1.83;;;;;0.20;99320.00;;;;4935591;29;20052;-64
2023/02/28 00:27:49;;;;;;;2.80;2.35;;;;;0.10;99316.00;;;;4919546;29;20054;-64
2023/02/28 00:30:19;;;;;;;6.43;2.10;;;;;0.10;99317.00;;;;4934839;29;20519;-64
2023/02/28 00:32:46;;;;;;;1.88;1.67;;;;;0.10;99311.00;;;;4936050;29;20040;-63
2023/02/28 00:35:12;;;;;;;2.63;2.03;;;;;0.10;99318.00;;;;4918462;29;20049;-64
2023/02/28 00:37:40;;;;;;;3.00;2.03;;;;;0.10;99316.00;;;;4935977;29;20499;-63
2023/02/28 00:40:09;;;;;;;2.35;1.95;;;;;0.00;99315.00;;;;4935809;29;20071;-64
2023/02/28 00:42:36;;;;;;;2.15;1.88;;;;;0.00;99318.00;;;;4935370;29;20042;-63
2023/02/28 00:45:04;;;;;;;1.88;1.70;;;;;0.00;99318.00;;;;4933781;29;20050;-63
2023/02/28 00:47:31;;;;;;;2.30;1.95;;;;;0.00;99319.00;;;;4934840;29;20135;-63
2023/02/28 00:49:58;;;;;;;2.83;2.00;;;;;-0.10;99314.00;;;;4934917;29;20071;-63
2023/02/28 00:52:25;;;;;;;3.13;2.10;;;;;-0.10;99310.00;;;;4938028;29;20086;-64
2023/02/28 00:54:53;;;;;;;2.75;2.05;;;;;-0.10;99318.00;;;;4920791;29;20052;-64
2023/02/28 00:57:20;;;;;;;4.05;2.30;;;;;-0.10;99323.00;;;;4935508;29;20048;-64
2023/02/28 00:59:47;;;;;;;2.45;2.00;;;;;-0.20;99312.00;;;;4935645;29;20452;-65
2023/02/28 01:02:14;;;;;;;2.97;2.13;;;;;-0.10;99322.00;;;;4918709;29;20499;-63
2023/02/28 01:04:41;;;;;;;3.50;2.65;;;;;-0.20;99319.00;;;;4933534;29;20047;-62
2023/02/28 01:07:07;;;;;;;4.55;2.38;;;;;-0.20;99305.00;;;;4934549;29;20047;-62
2023/02/28 01:09:34;;;;;;;2.22;2.03;;;;;-0.20;99317.00;;;;4918659;29;20043;-61
2023/02/28 01:12:00;;;;;;;4.97;2.30;;;;;-0.30;99321.00;;;;4934132;29;20484;-63
2023/02/28 01:14:27;;;;;;;4.30;2.33;;;;;-0.20;99310.00;;;;4933463;29;20062;-63
2023/02/28 01:16:53;;;;;;;2.80;2.08;;;;;-0.20;99305.00;;;;4935244;29;20444;-62
2023/02/28 01:19:20;;;;;;;2.40;2.20;;;;;-0.30;99304.00;;;;4933835;29;20108;-62
2023/02/28 01:21:46;;;;;;;3.25;2.22;;;;;-0.30;99298.00;;;;4941022;29;20051;-62
2023/02/28 01:24:13;;;;;;;4.00;2.50;;;;;-0.30;99310.00;;;;4940609;29;20071;-62
2023/02/28 01:26:39;;;;;;;3.97;2.47;;;;;-0.30;99306.00;;;;4942759;29;20062;-63
2023/02/28 01:29:06;;;;;;;4.38;2.40;;;;;-0.30;99308.00;;;;4941464;29;20073;-62
2023/02/28 01:31:33;;;;;;;2.33;2.13;;;;;-0.40;99314.00;;;;4942447;29;20036;-64
2023/02/28 01:34:00;;;;;;;3.10;2.33;;;;;-0.40;99308.00;;;;4941997;29;20437;-64
2023/02/28 01:36:27;;;;;;;3.40;2.25;;;;;-0.40;99304.00;;;;4940690;29;20051;-61
2023/02/28 01:38:54;;;;;;;2.75;2.22;;;;;-0.50;99312.00;;;;4940393;29;20492;-62
2023/02/28 01:41:27;;;;;;;3.40;2.80;;;;;-0.50;99308.00;;;;4942128;29;20039;-61
2023/02/28 01:43:58;;;;;;;2.38;2.15;;;;;-0.40;99306.00;;;;4941430;29;20044;-64
2023/02/28 01:46:24;;;;;;;2.58;2.33;;;;;-0.50;99300.00;;;;4942232;29;20044;-62
2023/02/28 01:49:14;;;;;;;4.28;2.42;;;;;-0.50;99304.00;;;;4941054;29;20052;-64
2023/02/28 01:51:50;;;;;;;3.10;2.30;;;;;-0.40;99296.00;;;;4942728;29;20091;-61
2023/02/28 01:54:33;;;;;;;3.03;2.63;;;;;-0.40;99307.00;;;;4940614;29;20056;-61
2023/02/28 01:57:11;;;;;;;3.88;2.58;;;;;-0.50;99292.00;;;;4943122;29;20055;-63
2023/02/28 01:59:46;;;;;;;3.20;2.67;;;;;-0.40;99292.00;;;;4941621;29;20052;-63
2023/02/28 02:02:14;;;;;;;4.25;2.85;;;;;-0.50;99292.00;;;;4927192;29;20048;-62
2023/02/28 02:04:50;;;;;;;4.47;2.60;;;;;-0.50;99292.00;;;;4942592;29;20048;-62
2023/02/28 02:07:18;;;;;;;4.20;2.78;;;;;-0.50;99306.00;;;;4935083;29;20095;-63
2023/02/28 02:09:44;;;;;;;3.00;2.70;;;;;-0.50;99296.00;;;;4935426;29;20261;-64
2023/02/28 02:12:52;;;;;;;3.25;2.90;;;;;-0.50;99307.00;;;;4935302;29;20055;-63
2023/02/28 02:15:29;;;;;;;4.82;2.90;;;;;-0.50;99293.00;;;;4912551;29;20059;-62
2023/02/28 02:18:00;;;;;;;3.88;2.88;;;;;-0.50;99283.00;;;;4917852;29;20048;-63
2023/02/28 02:20:58;;;;;;;3.03;2.67;;;;;-0.40;99290.00;;;;4922337;29;20040;-63
2023/02/28 02:23:59;;;;;;;5.07;3.15;;;;;-0.40;99278.00;;;;4924333;29;20077;-62
2023/02/28 02:26:37;;;;;;;6.10;3.17;;;;;-0.50;99281.00;;;;4925705;29;20100;-63
2023/02/28 02:29:35;;;;;;;4.40;2.70;;;;;-0.50;99282.00;;;;4915260;29;20044;-63
2023/02/28 02:32:23;;;;;;;4.28;2.80;;;;;-0.60;99272.00;;;;4918265;29;20118;-62
2023/02/28 02:34:59;;;;;;;3.97;3.28;;;;;-0.60;99279.00;;;;4916246;29;20099;-63
2023/02/28 02:37:40;;;;;;;4.22;3.25;;;;;-0.60;99280.00;;;;4915578;29;20107;-63
2023/02/28 02:40:16;;;;;;;5.97;3.20;;;;;-0.70;99281.00;;;;4918342;29;20048;-64
2023/02/28 02:42:50;;;;;;;4.10;2.97;;;;;-0.70;99283.00;;;;4919399;29;20501;-64
2023/02/28 02:45:35;;;;;;;3.63;3.20;;;;;-0.70;99280.00;;;;4917569;29;20048;-64
2023/02/28 02:48:05;;;;;;;3.42;2.85;;;;;-0.70;99294.00;;;;4918177;29;20055;-63
2023/02/28 02:50:51;;;;;;;5.78;3.17;;;;;-0.70;99279.00;;;;4919319;29;20040;-63
2023/02/28 02:53:22;;;;;;;6.45;4.35;;;;;-0.70;99287.00;;;;4919555;29;20080;-64
2023/02/28 02:55:54;;;;;;;3.53;3.00;;;;;-0.70;99280.00;;;;4921585;29;20068;-63
2023/02/28 02:58:30;;;;;;;6.07;3.90;;;;;-0.70;99284.00;;;;4931773;29;20047;-63
2023/02/28 03:00:59;;;;;;;3.53;2.85;;;;;-0.80;99290.00;;;;4917895;29;20052;-63
2023/02/28 03:03:30;;;;;;;7.72;3.75;;;;;-0.80;99282.00;;;;4929413;29;20044;-62
2023/02/28 03:05:59;;;;;;;3.53;2.90;;;;;-0.80;99279.00;;;;4926918;29;20079;-63
2023/02/28 03:08:27;;;;;;;4.25;3.35;;;;;-0.90;99291.00;;;;4920180;29;20056;-64
2023/02/28 03:11:00;;;;;;;5.97;3.17;;;;;-0.90;99282.00;;;;4918055;29;20127;-63
2023/02/28 03:13:58;;;;;;;3.50;3.03;;;;;-0.90;99288.00;;;;4917332;29;20077;-63
2023/02/28 03:16:34;;;;;;;3.78;3.00;;;;;-0.90;99286.00;;;;4917959;29;20051;-63
2023/02/28 03:19:19;;;;;;;3.30;3.00;;;;;-1.00;99287.00;;;;4917881;29;20048;-63
2023/02/28 03:21:48;;;;;;;4.22;3.10;;;;;-0.90;99277.00;;;;4917801;29;20043;-63
2023/02/28 03:24:20;;;;;;;4.38;3.10;;;;;-0.90;99286.00;;;;4916699;29;20073;-62
2023/02/28 03:27:00;;;;;;;6.40;3.05;;;;;-1.00;99277.00;;;;4901964;29;20102;-64
2023/02/28 03:29:26;;;;;;;4.53;2.95;;;;;-1.00;99271.00;;;;4918732;29;20040;-63
2023/02/28 03:32:03;;;;;;;3.67;3.05;;;;;-1.00;99282.00;;;;4918616;29;20115;-62
2023/02/28 03:34:38;;;;;;;4.47;2.85;;;;;-1.10;99281.00;;;;4901580;29;20084;-64
2023/02/28 03:37:08;;;;;;;;;;;;;-1.00;99282.00;;;;4918582;29;20043;-64
2023/02/28 03:39:39;;;;;;;3.90;2.63;;;;;-1.00;99277.00;;;;4918205;29;19927;-64
2023/02/28 03:42:11;;;;;;;4.93;3.28;;;;;-1.00;99271.00;;;;4918031;29;20111;-64
2023/02/28 03:45:00;;;;;;;4.95;3.30;;;;;-1.10;99271.00;;;;4916056;29;20056;-64
2023/02/28 03:47:47;;;;;;;3.65;2.97;;;;;-1.10;99272.00;;;;4916914;29;20067;-64
2023/02/28 03:50:23;;;;;;;3.50;3.10;;;;;-1.10;99269.00;;;;4916605;29;20047;-65
2023/02/28 03:52:59;;;;;;;5.22;3.72;;;;;-1.10;99282.00;;;;4917697;29;20040;-65
2023/02/28 03:55:30;;;;;;;4.05;3.65;;;;;-1.10;99271.00;;;;4915807;29;20044;-64
2023/02/28 03:58:03;;;;;;;4.13;3.40;;;;;-1.10;99283.00;;;;4916739;29;20059;-64
2023/02/28 04:00:53;;;;;;;4.43;3.53;;;;;-1.10;99281.00;;;;4916369;29;20044;-63
2023/02/28 04:03:19;;;;;;;3.75;3.08;;;;;-1.10;99264.00;;;;4917395;29;20055;-64
2023/02/28 04:05:50;;;;;;;5.55;3.08;;;;;-1.00;99274.00;;;;4917318;29;20632;-64
2023/02/28 04:08:17;;;;;;;4.93;3.92;;;;;-1.10;99272.00;;;;4917480;29;20048;-65
2023/02/28 04:10:49;;;;;;;5.65;3.85;;;;;-1.10;99265.00;;;;4917767;29;20121;-65
2023/02/28 04:13:15;;;;;;;4.30;3.80;;;;;-1.20;99266.00;;;;4917545;29;20103;-64
2023/02/28 04:15:42;;;;;;;4.82;3.70;;;;;-1.20;99267.00;;;;4917568;29;20048;-65
2023/02/28 04:18:08;;;;;;;5.72;3.78;;;;;-1.20;99267.00;;;;4916277;29;20370;-64
2023/02/28 04:20:35;;;;;;;4.25;3.45;;;;;-1.20;99267.00;;;;4917154;29;20075;-62
2023/02/28 04:23:01;;;;;;;4.55;3.78;;;;;-1.20;99261.00;;;;4915970;29;20476;-62
2023/02/28 04:25:28;;;;;;;4.40;3.50;;;;;-1.30;99264.00;;;;4915464;29;20056;-62
2023/02/28 04:27:54;;;;;;;5.13;3.78;;;;;-1.30;99256.00;;;;4916214;29;20048;-62
2023/02/28 04:30:21;;;;;;;5.50;3.72;;;;;-1.30;99261.00;;;;4915884;29;20052;-62
2023/02/28 04:32:47;;;;;;;5.20;3.75;;;;;-1.30;99278.00;;;;4900260;29;20080;-63
2023/02/28 04:35:14;;;;;;;6.50;4.05;;;;;-1.30;99272.00;;;;4915238;29;20075;-63
2023/02/28 04:37:40;;;;;;;4.88;3.60;;;;;-1.30;99255.00;;;;4917036;29;20060;-64
2023/02/28 04:40:07;;;;;;;5.20;3.85;;;;;-1.30;99254.00;;;;4916985;29;20075;-63
2023/02/28 04:42:35;;;;;;;17.42;10.32;;;;;-1.20;99265.00;;;;4916961;29;20078;-63
2023/02/28 04:45:03;;;;;;;5.40;3.83;;;;;-1.20;99260.00;;;;4915058;29;20052;-63
2023/02/28 04:47:30;;;;;;;5.32;4.15;;;;;-1.20;99268.00;;;;4917001;29;20048;-63
2023/02/28 04:49:56;;;;;;;5.53;4.07;;;;;-1.20;99266.00;;;;4916882;29;20047;-63
2023/02/28 04:52:23;;;;;;;4.75;4.18;;;;;-1.30;99276.00;;;;4915613;29;20052;-63
2023/02/28 04:54:50;;;;;;;6.93;3.95;;;;;-1.30;99264.00;;;;4916054;29;20053;-63
2023/02/28 04:57:16;;;;;;;6.60;4.15;;;;;-1.30;99267.00;;;;4916047;29;20044;-63
2023/02/28 04:59:43;;;;;;;6.43;4.30;;;;;-1.30;99269.00;;;;4900986;29;20048;-64
2023/02/28 05:02:09;;;;;;;4.07;3.72;;;;;-1.30;99272.00;;;;4917413;29;20080;-63
2023/02/28 05:04:36;;;;;;;5.15;3.97;;;;;-1.40;99265.00;;;;4917622;29;20054;-63
2023/02/28 05:07:03;;;;;;;5.00;3.97;;;;;-1.40;99269.00;;;;4902034;29;20143;-64
2023/02/28 05:09:30;;;;;;;6.35;4.38;;;;;-1.40;99266.00;;;;4915812;29;20055;-64
2023/02/28 05:11:56;;;;;;;5.95;4.40;;;;;-1.40;99265.00;;;;4900189;29;20092;-63
2023/02/28 05:14:23;;;;;;;4.18;3.65;;;;;-1.40;99272.00;;;;4916235;29;20052;-61
2023/02/28 05:16:50;;;;;;;6.75;4.50;;;;;-1.40;99269.00;;;;4899726;29;20080;-60
2023/02/28 05:19:16;;;;;;;4.63;4.00;;;;;-1.40;99272.00;;;;4899584;29;20485;-66
2023/02/28 05:21:54;;;;;;;5.18;4.22;;;;;-1.50;99274.00;;;;4916601;29;20515;-62
2023/02/28 05:24:24;;;;;;;4.20;3.72;;;;;-1.50;99271.00;;;;4915978;29;20111;-61
2023/02/28 05:26:53;;;;;;;5.18;4.20;;;;;-1.50;99274.00;;;;4915522;29;20505;-64
2023/02/28 05:29:19;;;;;;;5.28;4.18;;;;;-1.50;99276.00;;;;4915122;29;20509;-62
2023/02/28 05:31:46;;;;;;;5.18;4.68;;;;;-1.50;99267.00;;;;4915610;29;20107;-62
2023/02/28 05:34:15;;;;;;;6.07;4.25;;;;;-1.50;99279.00;;;;4899388;29;20502;-62
2023/02/28 05:36:42;;;;;;;6.07;4.57;;;;;-1.50;99271.00;;;;4917104;29;20052;-62
2023/02/28 05:39:12;;;;;;;6.03;4.50;;;;;-1.50;99279.00;;;;4917060;29;20054;-63
2023/02/28 05:41:43;;;;;;;7.10;4.88;;;;;-1.50;99274.00;;;;4899099;29;20051;-64
2023/02/28 05:44:10;;;;;;;5.20;4.70;;;;;-1.60;99281.00;;;;4915543;29;20070;-63
2023/02/28 05:46:36;;;;;;;5.05;4.43;;;;;-1.50;99274.00;;;;4916232;29;20047;-61
2023/02/28 05:49:03;;;;;;;6.78;5.07;;;;;-1.50;99286.00;;;;4915257;29;20462;-65
2023/02/28 05:51:30;;;;;;;5.65;4.63;;;;;-1.60;99288.00;;;;4915073;29;20040;-63
2023/02/28 05:54:01;;;;;;;5.35;4.60;;;;;-1.50;99289.00;;;;4898988;29;20052;-62
2023/02/28 05:56:28;;;;;;;4.65;4.00;;;;;-1.50;99285.00;;;;4900083;29;20052;-65
2023/02/28 05:58:54;;;;;;;6.80;4.65;;;;;-1.60;99289.00;;;;4916602;29;20040;-62
2023/02/28 06:01:23;;;;;;;6.68;5.22;;;;;-1.50;99289.00;;;;4916631;29;20048;-61
2023/02/28 06:03:50;;;;;;;8.07;5.05;;;;;-1.60;99282.00;;;;4914994;29;20112;-61
2023/02/28 06:06:16;;;;;;;7.63;4.78;;;;;-1.60;99288.00;;;;4914968;29;20083;-63
2023/02/28 06:08:45;;;;;;;8.15;4.85;;;;;-1.50;99283.00;;;;4915158;29;20060;-63
2023/02/28 06:11:12;;;;;;;5.50;4.85;;;;;-1.50;99286.00;;;;4916096;29;20449;-65
2023/02/28 06:13:39;;;;;;;5.20;4.45;;;;;-1.50;99289.00;;;;4914610;29;20090;-62
2023/02/28 06:16:05;;;;;;;8.73;5.82;;;;;-1.50;99295.00;;;;4918345;29;20125;-65
2023/02/28 06:18:32;;;;;;;6.55;4.63;;;;;-1.50;99293.00;;;;4918595;29;20532;-64
2023/02/28 06:20:58;;;;;;;7.07;4.95;;;;;-1.50;99298.00;;;;4919521;29;20036;-65
2023/02/28 06:23:25;;;;;;;5.82;4.93;;;;;-1.40;99295.00;;;;4917706;29;20099;-64
2023/02/28 06:25:53;;;;;;;6.07;4.97;;;;;-1.40;99307.00;;;;4918721;29;20044;-64
2023/02/28 06:28:19;;;;;;;7.00;5.40;;;;;-1.30;99305.00;;;;4902821;29;20079;-64
2023/02/28 06:30:45;;;;;;;7.22;4.95;;;;;-1.30;99304.00;;;;4919408;29;20041;-64
2023/02/28 06:33:12;;;;;;;6.28;4.55;;;;;-1.30;99300.00;;;;4919639;29;20661;-63
2023/02/28 06:35:39;;;;;;;5.85;5.00;;;;;-1.30;99299.00;;;;4919169;29;20076;-63
2023/02/28 06:38:06;;;;;;;5.57;4.53;;;;;-1.20;99309.00;;;;4919734;29;20544;-63
2023/02/28 06:40:34;;;;;;;6.05;4.53;;;;;-1.10;99305.00;;;;4918439;29;20464;-65
2023/02/28 06:43:02;;;;;;;17.13;4.90;;;;;-1.10;99313.00;;;;4918701;29;20048;-64
2023/02/28 06:45:28;;;;;;;5.53;4.85;;;;;-1.10;99317.00;;;;4917864;29;20044;-64
2023/02/28 06:47:55;;;;;;;5.90;4.72;;;;;-1.10;99311.00;;;;4919342;29;20048;-64
2023/02/28 06:50:21;;;;;;;6.78;4.55;;;;;-1.10;99313.00;;;;4922444;29;20055;-65
2023/02/28 06:52:48;;;;;;;6.60;5.10;;;;;-1.10;99321.00;;;;4929493;29;20060;-64
2023/02/28 06:55:14;;;;;;;7.85;5.28;;;;;-1.00;99319.00;;;;4924724;29;20131;-62
2023/02/28 06:57:41;;;;;;;5.47;4.40;;;;;-0.90;99318.00;;;;4918040;29;20099;-66
2023/02/28 07:00:09;;;;;;;8.27;4.70;;;;;-0.90;99327.00;;;;4918372;29;20052;-61
2023/02/28 07:02:37;;;;;;;6.43;4.97;;;;;-0.80;99320.00;;;;4919653;29;20044;-61
2023/02/28 07:05:05;;;;;;;8.10;5.35;;;;;-0.80;99326.00;;;;4917316;29;20040;-65
2023/02/28 07:07:32;;;;;;;6.38;5.00;;;;;-0.80;99326.00;;;;4917581;29;20052;-65
2023/02/28 07:09:58;;;;;;;5.82;5.03;;;;;-0.70;99335.00;;;;4918757;29;20051;-62
2023/02/28 07:12:25;;;;;;;7.93;5.28;;;;;-0.70;99339.00;;;;4919010;29;20048;-63
2023/02/28 07:14:52;;;;;;;5.85;5.13;;;;;-0.70;99337.00;;;;4901619;29;20055;-65
2023/02/28 07:17:22;;;;;;;7.10;5.45;;;;;-0.70;99343.00;;;;4919093;29;20055;-61
2023/02/28 07:19:49;;;;;;;8.85;5.75;;;;;-0.60;99341.00;;;;4917489;29;20532;-65
2023/02/28 07:22:24;;;;;;;9.07;5.10;;;;;-0.60;99343.00;;;;4918599;29;20163;-65
2023/02/28 07:24:51;;;;;;;6.32;5.20;;;;;-0.50;99338.00;;;;4916426;29;20072;-64
2023/02/28 07:27:28;;;;;;;7.28;5.00;;;;;-0.40;99340.00;;;;4917089;29;20147;-67
2023/02/28 07:30:01;;;;;;;9.35;5.82;;;;;-0.30;99335.00;;;;4901866;29;20056;-64
2023/02/28 07:32:28;;;;;;;7.60;4.97;;;;;-0.20;99343.00;;;;4919073;29;20426;-65
2023/02/28 07:34:55;;;;;;;6.47;4.72;;;;;-0.10;99346.00;;;;4917220;29;20099;-64
2023/02/28 07:37:21;;;;;;;8.40;5.30;;;;;0.00;99342.00;;;;4919245;29;20080;-66
2023/02/28 07:39:48;;;;;;;6.28;4.90;;;;;0.00;99349.00;;;;4902504;29;20142;-64
2023/02/28 07:42:27;;;;;;;5.53;4.38;;;;;0.20;99350.00;;;;4917298;29;20127;-63
2023/02/28 07:44:53;;;;;;;7.05;4.65;;;;;0.20;99353.00;;;;4917328;29;20054;-64
2023/02/28 07:47:20;;;;;;;6.57;4.38;;;;;0.30;99343.00;;;;4917983;29;20051;-64
2023/02/28 07:49:46;;;;;;;9.10;6.22;;;;;0.30;99349.00;;;;4901211;29;20671;-65
2023/02/28 07:52:13;;;;;;;6.05;4.93;;;;;0.30;99349.00;;;;4918060;29;20111;-64
2023/02/28 07:54:39;;;;;;;5.47;4.50;;;;;0.30;99346.00;;;;4916059;29;20048;-63
2023/02/28 07:57:06;;;;;;;6.90;4.65;;;;;0.40;99349.00;;;;4917775;29;20052;-64
2023/02/28 07:59:32;;;;;;;9.90;4.72;;;;;0.40;99358.00;;;;4917784;29;20071;-65
2023/02/28 08:01:59;;;;;;;24.40;12.23;;;;;0.50;99350.00;;;;4916257;29;20048;-62
2023/02/28 08:04:26;;;;;;;7.10;4.70;;;;;0.70;99347.00;;;;4915821;29;20048;-62
2023/02/28 08:06:52;;;;;;;5.35;4.30;;;;;0.80;99357.00;;;;4900856;29;20052;-62
2023/02/28 08:09:19;;;;;;;6.22;4.60;;;;;0.80;99352.00;;;;4917462;29;20047;-63
2023/02/28 08:11:46;;;;;;;5.65;4.07;;;;;0.90;99358.00;;;;4916233;29;20048;-61
2023/02/28 08:14:12;;;;;;;9.38;5.85;;;;;1.00;99353.00;;;;4916856;29;20040;-62
2023/02/28 08:16:39;;;;;;;10.00;4.00;;;;;1.00;99346.00;;;;4915917;29;20048;-62
2023/02/28 08:19:05;;;;;;;7.15;4.60;;;;;1.10;99356.00;;;;4916019;29;20048;-62
2023/02/28 08:21:32;;;;;;;5.72;4.15;;;;;1.00;99353.00;;;;4915817;29;20096;-63
2023/02/28 08:23:59;;;;;;;5.05;4.22;;;;;1.10;99356.00;;;;4915407;29;20052;-62
2023/02/28 08:26:26;;;;;;;6.30;3.95;;;;;1.10;99353.00;;;;4915856;29;20568;-62
2023/02/28 08:28:52;;;;;;;5.55;3.92;;;;;1.00;99353.00;;;;4915883;29;20080;-64
2023/02/28 08:31:22;;;;;;;5.70;3.90;;;;;1.00;99362.00;;;;4915899;29;20040;-63
2023/02/28 08:33:51;;;;;;;5.55;4.03;;;;;1.00;99358.00;;;;4916419;29;20099;-64
2023/02/28 08:36:19;;;;;;;7.60;4.45;;;;;1.00;99354.00;;;;4915677;29;20052;-63
2023/02/28 08:38:45;;;;;;;8.85;4.40;;;;;0.90;99356.00;;;;4915619;29;20124;-63
2023/02/28 08:41:13;;;;;;;8.43;4.47;;;;;0.90;99363.00;;;;4916811;29;20689;-63
2023/02/28 08:43:40;;;;;;;6.68;4.50;;;;;0.80;99361.00;;;;4915109;29;20048;-64
2023/02/28 08:46:10;;;;;;;5.53;4.32;;;;;0.80;99355.00;;;;4915618;29;20063;-64
2023/02/28 08:48:39;;;;;;;7.30;4.18;;;;;0.80;99357.00;;;;4915543;29;20563;-65
2023/02/28 08:51:12;;;;;;;8.23;4.30;;;;;0.90;99361.00;;;;4915527;29;20095;-64
2023/02/28 08:53:39;;;;;;;5.88;4.00;;;;;1.00;99357.00;;;;4914643;29;20043;-64
2023/02/28 08:56:11;;;;;;;9.23;5.22;;;;;1.20;99360.00;;;;4915522;29;20044;-64
2023/02/28 08:58:38;;;;;;;10.85;6.32;;;;;1.30;99359.00;;;;4915604;29;20458;-64
2023/02/28 09:01:10;;;;;;;5.90;4.47;;;;;1.50;99357.00;;;;4916587;29;20095;-64
2023/02/28 09:03:37;;;;;;;5.22;4.10;;;;;1.50;99366.00;;;;4915904;29;20079;-63
2023/02/28 09:06:04;;;;;;;6.25;4.38;;;;;1.50;99363.00;;;;4919429;29;20115;-64
2023/02/28 09:08:31;;;;;;;5.72;4.10;;;;;1.50;99358.00;;;;4930997;29;20047;-63
2023/02/28 09:10:58;;;;;;;6.85;4.88;;;;;1.60;99355.00;;;;4930625;29;20402;-63
2023/02/28 09:13:27;;;;;;;5.35;4.25;;;;;1.60;99359.00;;;;4929739;29;20047;-63
2023/02/28 09:15:57;;;;;;;6.95;4.75;;;;;1.70;99347.00;;;;4928835;29;20075;-63
2023/02/28 09:18:24;;;;;;;9.85;4.93;;;;;1.80;99353.00;;;;4930074;29;20130;-64
2023/02/28 09:20:51;;;;;;;6.75;4.28;;;;;1.80;99364.00;;;;4930076;29;20071;-62
2023/02/28 09:23:18;;;;;;;7.50;4.78;;;;;1.80;99357.00;;;;4928846;29;20453;-63
2023/02/28 09:25:51;;;;;;;7.85;4.55;;;;;2.10;99357.00;;;;4926639;29;20051;-62
2023/02/28 09:28:18;;;;;;;5.50;4.22;;;;;1.90;99348.00;;;;4932231;29;20111;-63
2023/02/28 09:30:46;;;;;;;6.85;4.78;;;;;2.00;99353.00;;;;4932257;29;20108;-64
2023/02/28 09:33:13;;;;;;;7.68;4.20;;;;;2.00;99363.00;;;;4932084;29;20062;-64
2023/02/28 09:35:40;;;;;;;5.68;4.68;;;;;2.00;99361.00;;;;4931131;29;20055;-64
2023/02/28 09:38:07;;;;;;;7.03;4.88;;;;;1.90;99377.00;;;;4917054;29;20044;-64
2023/02/28 09:40:37;;;;;;;6.30;4.50;;;;;2.00;99373.00;;;;4915557;29;20047;-63
2023/02/28 09:43:05;;;;;;;6.63;4.53;;;;;1.90;99373.00;;;;4928048;29;20131;-64
2023/02/28 09:45:38;;;;;;;6.43;5.25;;;;;1.90;99371.00;;;;4917831;29;20052;-66
2023/02/28 09:48:29;;;;;;;7.00;4.60;;;;;1.90;99377.00;;;;4931692;29;20103;-64
2023/02/28 09:51:02;;;;;;;6.15;4.78;;;;;1.80;99368.00;;;;4938561;29;20042;-63
2023/02/28 09:53:35;;;;;;;5.90;4.88;;;;;1.80;99363.00;;;;4938238;29;20464;-63
2023/02/28 09:56:06;;;;;;;7.05;4.82;;;;;1.70;99362.00;;;;4936813;29;20051;-62
2023/02/28 09:58:37;;;;;;;6.25;4.97;;;;;1.70;99356.00;;;;4938737;29;20044;-63
2023/02/28 10:01:18;;;;;;;10.50;5.57;;;;;1.80;99354.00;;;;4937266;29;20456;-63
2023/02/28 10:04:08;;;;;;;8.40;5.30;;;;;2.00;99365.00;;;;4938094;29;20504;-63
2023/02/28 10:06:43;;;;;;;8.07;5.38;;;;;2.10;99353.00;;;;4938657;29;20094;-63
2023/02/28 10:09:17;;;;;;;7.18;5.35;;;;;2.20;99353.00;;;;4938528;29;20043;-64
2023/02/28 10:11:45;;;;;;;8.52;5.93;;;;;2.30;99367.00;;;;4938375;29;20040;-63
2023/02/28 10:14:20;;;;;;;8.15;5.78;;;;;2.40;99356.00;;;;4937128;29;20044;-63
2023/02/28 10:16:58;;;;;;;6.97;5.40;;;;;2.50;99354.00;;;;4937879;29;20118;-64
2023/02/28 10:20:07;;;;;;;7.22;5.30;;;;;2.70;99357.00;;;;4937412;29;20047;-61
2023/02/28 10:22:42;;;;;;;8.20;5.53;;;;;2.70;99368.00;;;;4936528;29;20043;-64
2023/02/28 10:25:24;;;;;;;8.93;5.75;;;;;2.60;99348.00;;;;4938212;29;20095;-64
2023/02/28 10:27:54;;;;;;;7.75;5.47;;;;;2.60;99353.00;;;;4939452;29;20067;-61
2023/02/28 10:30:21;;;;;;;9.18;6.07;;;;;2.70;99342.00;;;;4938152;29;20051;-63
2023/02/28 10:32:54;;;;;;;7.28;6.22;;;;;3.10;99349.00;;;;4937173;29;20047;-64
2023/02/28 10:35:25;;;;;;;23.67;13.35;;;;;3.20;99338.00;;;;4937994;29;20039;-66
2023/02/28 10:38:14;;;;;;;11.43;7.85;;;;;3.40;99347.00;;;;4938579;29;20051;-63
2023/02/28 10:40:41;;;;;;;8.88;6.15;;;;;3.40;99343.00;;;;4936878;29;20048;-62
2023/02/28 10:43:14;;;;;;;7.85;5.65;;;;;3.40;99344.00;;;;4938111;29;20036;-62
2023/02/28 10:46:10;;;;;;;6.72;5.80;;;;;3.50;99346.00;;;;4936660;29;20102;-60
2023/02/28 10:48:43;;;;;;;8.43;6.05;;;;;3.40;99357.00;;;;4919753;29;20079;-61
2023/02/28 10:51:14;;;;;;;6.53;5.50;;;;;3.20;99343.00;;;;4935295;29;20044;-60
2023/02/28 10:53:48;;;;;;;8.00;5.97;;;;;3.10;99341.00;;;;4937765;29;20082;-62
2023/02/28 10:56:27;;;;;;;8.32;6.50;;;;;3.10;99344.00;;;;4938024;29;20052;-61
2023/02/28 10:59:07;;;;;;;8.88;6.05;;;;;3.00;99346.00;;;;4937114;29;20497;-60
2023/02/28 11:01:53;;;;;;;12.13;6.93;;;;;3.10;99341.00;;;;4934264;29;20047;-61
2023/02/28 11:04:22;;;;;;;18.15;6.78;;;;;3.00;99331.00;;;;4934295;29;20468;-60
2023/02/28 11:07:01;;;;;;;10.07;6.57;;;;;3.00;99331.00;;;;4934968;29;20099;-61
2023/02/28 11:09:34;;;;;;;10.05;6.88;;;;;3.10;99339.00;;;;4934361;29;20404;-61
2023/02/28 11:12:04;;;;;;;11.48;6.80;;;;;3.30;99334.00;;;;4932701;29;20066;-61
2023/02/28 11:14:35;;;;;;;8.45;6.75;;;;;3.70;99333.00;;;;4934530;29;20047;-63
2023/02/28 11:17:20;;;;;;;8.82;6.78;;;;;4.20;99336.00;;;;4934807;29;20039;-62
2023/02/28 11:19:49;;;;;;;10.18;6.53;;;;;4.20;99325.00;;;;4934321;29;20095;-61
2023/02/28 11:22:20;;;;;;;8.80;6.72;;;;;4.30;99335.00;;;;4934533;29;20056;-60
2023/02/28 11:24:53;;;;;;;10.60;6.70;;;;;4.30;99342.00;;;;4934412;29;20131;-60
2023/02/28 11:27:46;;;;;;;11.50;6.63;;;;;4.30;99330.00;;;;4934938;29;20048;-63
2023/02/28 11:30:24;;;;;;;12.23;7.18;;;;;4.30;99342.00;;;;4933188;29;20472;-62
2023/02/28 11:32:50;;;;;;;8.13;7.20;;;;;4.50;99338.00;;;;4933976;29;20056;-62
2023/02/28 11:35:24;;;;;;;10.02;6.55;;;;;4.40;99333.00;;;;4932898;29;20071;-63
2023/02/28 11:37:52;;;;;;;10.25;6.88;;;;;4.50;99329.00;;;;4933736;29;20043;-64
2023/02/28 11:40:24;;;;;;;11.00;8.60;;;;;4.50;99332.00;;;;4934564;29;20457;-63
2023/02/28 11:43:06;;;;;;;8.57;7.10;;;;;4.70;99325.00;;;;4934136;29;20428;-63
2023/02/28 11:46:15;;;;;;;9.55;6.85;;;;;4.60;99335.00;;;;4932348;29;20055;-62
2023/02/28 11:48:58;;;;;;;10.40;6.53;;;;;4.70;99335.00;;;;4932951;29;20413;-62
2023/02/28 11:51:28;;;;;;;9.55;7.13;;;;;5.00;99343.00;;;;4935223;29;20095;-62
2023/02/28 11:54:12;;;;;;;11.98;7.53;;;;;4.80;99330.00;;;;4932930;29;20054;-61
2023/02/28 11:56:52;;;;;;;10.07;7.15;;;;;4.70;99337.00;;;;4934723;29;20052;-62
2023/02/28 11:59:44;;;;;;;9.30;6.68;;;;;4.50;99322.00;;;;4934246;29;20052;-62
2023/02/28 12:02:40;;;;;;;6.57;5.63;;;;;4.40;99329.00;;;;4934545;29;20046;-61
2023/02/28 12:05:30;;;;;;;8.50;6.57;;;;;4.40;99321.00;;;;4932856;29;20054;-63
2023/02/28 12:08:24;;;;;;;10.15;6.60;;;;;4.70;99313.00;;;;4932662;29;20126;-62
2023/02/28 12:11:04;;;;;;;10.57;6.57;;;;;4.80;99326.00;;;;4934265;29;20094;-61
2023/02/28 12:13:56;;;;;;;10.40;6.25;;;;;5.10;99318.00;;;;4935502;29;20614;-62
2023/02/28 12:16:45;;;;;;;8.07;6.20;;;;;5.20;99316.00;;;;4937142;29;20071;-63
2023/02/28 12:19:18;;;;;;;9.77;6.30;;;;;5.30;99319.00;;;;4934659;29;20048;-65
2023/02/28 12:22:00;;;;;;;7.80;6.03;;;;;5.30;99322.00;;;;4929157;29;20039;-63
2023/02/28 12:25:02;;;;;;;8.40;6.30;;;;;5.20;99322.00;;;;4926866;29;20428;-62
2023/02/28 12:27:34;;;;;;;9.88;5.97;;;;;5.20;99326.00;;;;4929146;29;20083;-62
2023/02/28 12:30:18;;;;;;;11.77;6.57;;;;;4.90;99323.00;;;;4929599;29;20051;-64
2023/02/28 12:32:49;;;;;;;8.65;6.22;;;;;4.70;99331.00;;;;4931427;29;20048;-63
2023/02/28 12:35:21;;;;;;;9.20;6.18;;;;;4.80;99315.00;;;;4927741;29;20445;-61
2023/02/28 12:38:04;;;;;;;7.70;6.18;;;;;5.00;99336.00;;;;4930760;29;20497;-62
2023/02/28 12:40:44;;;;;;;9.88;7.05;;;;;4.90;99318.00;;;;4944934;29;20051;-62
2023/02/28 12:43:13;;;;;;;9.52;6.55;;;;;4.80;99317.00;;;;4928599;29;20177;-63
2023/02/28 12:45:51;;;;;;;10.75;7.45;;;;;5.00;99326.00;;;;4927775;29;20127;-64